sensor_id;sensor_type;location;lat;lon;timestamp;temperature;humidity
6954;DHT22;3516;47.980;8.808;2022-12-18T06:19:05;17.60;93.00
6954;DHT22;3516;47.980;8.808;2022-12-18T06:21:32;17.60;93.20
6954;DHT22;3516;47.980;8.808;2022-12-18T06:23:59;17.60;93.10
6954;DHT22;3516;47.980;8.808;2022-12-18T06:26:26;17.60;93.30
6954;DHT22;3516;47.980;8.808;2022-12-18T06:28:53;17.60;93.40
6954;DHT22;3516;47.980;8.808;2022-12-18T06:31:20;17.60;93.40
6954;DHT22;3516;47.980;8.808;2022-12-18T06:33:46;17.60;93.30
6954;DHT22;3516;47.980;8.808;2022-12-18T06:36:14;17.60;93.20
6954;DHT22;3516;47.980;8.808;2022-12-18T06:38:43;17.60;93.20
6954;DHT22;3516;47.980;8.808;2022-12-18T06:41:11;17.60;93.10
6954;DHT22;3516;47.980;8.808;2022-12-18T06:43:38;17.60;93.00
6954;DHT22;3516;47.980;8.808;2022-12-18T06:46:05;17.60;93.00
6954;DHT22;3516;47.980;8.808;2022-12-18T06:48:32;17.60;92.80
6954;DHT22;3516;47.980;8.808;2022-12-18T06:50:59;17.60;92.90
6954;DHT22;3516;47.980;8.808;2022-12-18T06:53:28;17.60;92.90
6954;DHT22;3516;47.980;8.808;2022-12-18T06:56:00;17.50;92.70
6954;DHT22;3516;47.980;8.808;2022-12-18T06:58:27;17.50;92.60
6954;DHT22;3516;47.980;8.808;2022-12-18T07:00:54;17.50;92.60
6954;DHT22;3516;47.980;8.808;2022-12-18T07:03:25;17.50;92.40
6954;DHT22;3516;47.980;8.808;2022-12-18T07:05:52;17.50;92.30
6954;DHT22;3516;47.980;8.808;2022-12-18T07:08:18;17.50;92.30
6954;DHT22;3516;47.980;8.808;2022-12-18T07:10:47;17.50;92.30
6954;DHT22;3516;47.980;8.808;2022-12-18T07:13:15;17.50;92.20
6954;DHT22;3516;47.980;8.808;2022-12-18T07:15:41;17.50;92.20
6954;DHT22;3516;47.980;8.808;2022-12-18T07:18:08;17.50;92.20
6954;DHT22;3516;47.980;8.808;2022-12-18T07:20:35;17.50;92.30
6954;DHT22;3516;47.980;8.808;2022-12-18T07:23:02;17.60;92.30
6954;DHT22;3516;47.980;8.808;2022-12-18T07:25:29;17.60;92.20
6954;DHT22;3516;47.980;8.808;2022-12-18T07:27:57;17.60;92.30
6954;DHT22;3516;47.980;8.808;2022-12-18T07:30:23;17.50;92.20
6954;DHT22;3516;47.980;8.808;2022-12-18T07:32:50;17.50;92.20
6954;DHT22;3516;47.980;8.808;2022-12-18T07:35:17;17.50;92.30
6954;DHT22;3516;47.980;8.808;2022-12-18T07:37:44;17.50;92.30
6954;DHT22;3516;47.980;8.808;2022-12-18T07:40:11;17.50;92.20
6954;DHT22;3516;47.980;8.808;2022-12-18T07:42:38;17.50;92.20
6954;DHT22;3516;47.980;8.808;2022-12-18T07:45:07;17.60;92.30
6954;DHT22;3516;47.980;8.808;2022-12-18T07:47:35;17.50;92.30
6954;DHT22;3516;47.980;8.808;2022-12-18T07:50:02;17.60;92.40
6954;DHT22;3516;47.980;8.808;2022-12-18T07:52:29;17.60;92.30
6954;DHT22;3516;47.980;8.808;2022-12-18T07:54:55;17.60;92.40
6954;DHT22;3516;47.980;8.808;2022-12-18T07:57:22;17.60;92.40
6954;DHT22;3516;47.980;8.808;2022-12-18T07:59:49;17.60;92.40
6954;DHT22;3516;47.980;8.808;2022-12-18T08:02:17;17.60;92.50
6954;DHT22;3516;47.980;8.808;2022-12-18T08:04:44;17.70;92.70
6954;DHT22;3516;47.980;8.808;2022-12-18T08:07:10;17.60;92.90
6954;DHT22;3516;47.980;8.808;2022-12-18T08:09:37;17.70;93.00
6954;DHT22;3516;47.980;8.808;2022-12-18T08:12:04;17.70;93.00
6954;DHT22;3516;47.980;8.808;2022-12-18T08:14:31;17.60;92.90
6954;DHT22;3516;47.980;8.808;2022-12-18T08:16:58;17.70;93.00
6954;DHT22;3516;47.980;8.808;2022-12-18T08:19:26;17.70;92.90
6954;DHT22;3516;47.980;8.808;2022-12-18T08:21:53;17.70;93.00
6954;DHT22;3516;47.980;8.808;2022-12-18T08:24:19;17.80;93.30
6954;DHT22;3516;47.980;8.808;2022-12-18T08:26:46;17.90;93.50
6954;DHT22;3516;47.980;8.808;2022-12-18T08:29:13;18.00;93.50
6954;DHT22;3516;47.980;8.808;2022-12-18T08:31:39;18.10;93.60
6954;DHT22;3516;47.980;8.808;2022-12-18T08:34:07;18.10;93.50
6954;DHT22;3516;47.980;8.808;2022-12-18T08:36:35;18.20;93.50
6954;DHT22;3516;47.980;8.808;2022-12-18T08:39:02;18.20;93.50
6954;DHT22;3516;47.980;8.808;2022-12-18T08:41:29;18.30;93.50
6954;DHT22;3516;47.980;8.808;2022-12-18T08:43:56;18.40;93.40
6954;DHT22;3516;47.980;8.808;2022-12-18T08:46:42;18.40;93.20
6954;DHT22;3516;47.980;8.808;2022-12-18T08:49:10;18.50;93.30
6954;DHT22;3516;47.980;8.808;2022-12-18T08:51:39;18.50;93.50
6954;DHT22;3516;47.980;8.808;2022-12-18T08:54:06;18.50;93.00
6954;DHT22;3516;47.980;8.808;2022-12-18T08:56:33;18.50;92.90
6954;DHT22;3516;47.980;8.808;2022-12-18T08:59:00;18.50;92.80
6954;DHT22;3516;47.980;8.808;2022-12-18T09:01:27;18.50;92.70
6954;DHT22;3516;47.980;8.808;2022-12-18T09:03:53;18.60;92.80
6954;DHT22;3516;47.980;8.808;2022-12-18T09:06:22;18.60;92.70
6954;DHT22;3516;47.980;8.808;2022-12-18T09:08:50;18.60;92.80
6954;DHT22;3516;47.980;8.808;2022-12-18T09:11:19;18.60;92.80
6954;DHT22;3516;47.980;8.808;2022-12-18T09:13:46;18.50;89.20
6954;DHT22;3516;47.980;8.808;2022-12-18T09:16:14;18.10;82.00
6954;DHT22;3516;47.980;8.808;2022-12-18T09:18:41;17.70;80.90
6954;DHT22;3516;47.980;8.808;2022-12-18T09:21:09;17.60;82.30
6954;DHT22;3516;47.980;8.808;2022-12-18T09:23:36;17.60;83.60
6954;DHT22;3516;47.980;8.808;2022-12-18T09:26:04;17.70;84.40
6954;DHT22;3516;47.980;8.808;2022-12-18T09:28:31;17.90;84.50
6954;DHT22;3516;47.980;8.808;2022-12-18T09:30:58;18.10;84.50
6954;DHT22;3516;47.980;8.808;2022-12-18T09:33:25;18.10;84.10
6954;DHT22;3516;47.980;8.808;2022-12-18T09:35:51;18.30;83.70
6954;DHT22;3516;47.980;8.808;2022-12-18T09:38:19;18.30;83.10
6954;DHT22;3516;47.980;8.808;2022-12-18T09:40:49;18.40;82.50
6954;DHT22;3516;47.980;8.808;2022-12-18T09:43:23;18.50;82.20
6954;DHT22;3516;47.980;8.808;2022-12-18T09:45:55;18.60;82.00
6954;DHT22;3516;47.980;8.808;2022-12-18T09:48:27;18.70;81.70
6954;DHT22;3516;47.980;8.808;2022-12-18T09:50:58;18.70;81.20
6954;DHT22;3516;47.980;8.808;2022-12-18T09:53:30;18.80;80.50
6954;DHT22;3516;47.980;8.808;2022-12-18T09:55:58;18.90;80.30
6954;DHT22;3516;47.980;8.808;2022-12-18T09:58:31;18.90;79.80
6954;DHT22;3516;47.980;8.808;2022-12-18T10:00:58;19.00;79.40
6954;DHT22;3516;47.980;8.808;2022-12-18T10:03:25;19.00;79.30
6954;DHT22;3516;47.980;8.808;2022-12-18T10:06:00;19.20;78.80
6954;DHT22;3516;47.980;8.808;2022-12-18T10:08:34;19.10;78.50
6954;DHT22;3516;47.980;8.808;2022-12-18T10:11:20;19.20;78.60
6954;DHT22;3516;47.980;8.808;2022-12-18T10:13:52;19.20;78.70
6954;DHT22;3516;47.980;8.808;2022-12-18T10:16:27;19.40;78.60
6954;DHT22;3516;47.980;8.808;2022-12-18T10:19:16;19.40;78.30
6954;DHT22;3516;47.980;8.808;2022-12-18T10:21:48;19.40;77.80
6954;DHT22;3516;47.980;8.808;2022-12-18T10:24:24;19.40;77.60
6954;DHT22;3516;47.980;8.808;2022-12-18T10:26:59;19.40;77.50
6954;DHT22;3516;47.980;8.808;2022-12-18T10:29:35;19.50;77.40
6954;DHT22;3516;47.980;8.808;2022-12-18T10:32:02;19.60;77.30
6954;DHT22;3516;47.980;8.808;2022-12-18T10:34:30;19.50;77.10
6954;DHT22;3516;47.980;8.808;2022-12-18T10:36:57;19.60;77.00
6954;DHT22;3516;47.980;8.808;2022-12-18T10:39:27;19.60;76.90
6954;DHT22;3516;47.980;8.808;2022-12-18T10:42:10;19.60;76.50
6954;DHT22;3516;47.980;8.808;2022-12-18T10:44:38;19.60;76.30
6954;DHT22;3516;47.980;8.808;2022-12-18T10:47:11;19.70;76.50
6954;DHT22;3516;47.980;8.808;2022-12-18T10:49:42;19.60;76.20
6954;DHT22;3516;47.980;8.808;2022-12-18T10:52:15;19.80;76.20
6954;DHT22;3516;47.980;8.808;2022-12-18T10:54:48;19.80;76.00
6954;DHT22;3516;47.980;8.808;2022-12-18T10:57:17;19.80;75.90
6954;DHT22;3516;47.980;8.808;2022-12-18T10:59:54;19.80;76.00
6954;DHT22;3516;47.980;8.808;2022-12-18T11:02:34;19.80;75.70
6954;DHT22;3516;47.980;8.808;2022-12-18T11:05:01;19.80;75.60
6954;DHT22;3516;47.980;8.808;2022-12-18T11:07:47;20.00;75.60
6954;DHT22;3516;47.980;8.808;2022-12-18T11:10:16;19.80;75.20
6954;DHT22;3516;47.980;8.808;2022-12-18T11:12:44;19.80;75.10
6954;DHT22;3516;47.980;8.808;2022-12-18T11:15:16;19.90;75.00
6954;DHT22;3516;47.980;8.808;2022-12-18T11:17:47;19.90;74.90
6954;DHT22;3516;47.980;8.808;2022-12-18T11:20:23;20.00;74.90
6954;DHT22;3516;47.980;8.808;2022-12-18T11:22:56;19.80;74.70
6954;DHT22;3516;47.980;8.808;2022-12-18T11:25:23;19.90;74.80
6954;DHT22;3516;47.980;8.808;2022-12-18T11:27:52;19.90;74.80
6954;DHT22;3516;47.980;8.808;2022-12-18T11:30:26;20.00;74.80
6954;DHT22;3516;47.980;8.808;2022-12-18T11:32:59;19.90;74.70
6954;DHT22;3516;47.980;8.808;2022-12-18T11:35:36;19.90;73.60
6954;DHT22;3516;47.980;8.808;2022-12-18T11:38:10;20.00;74.50
6954;DHT22;3516;47.980;8.808;2022-12-18T11:40:38;20.00;74.30
6954;DHT22;3516;47.980;8.808;2022-12-18T11:43:10;20.00;74.30
6954;DHT22;3516;47.980;8.808;2022-12-18T11:45:45;20.10;74.70
6954;DHT22;3516;47.980;8.808;2022-12-18T11:48:17;20.10;74.80
6954;DHT22;3516;47.980;8.808;2022-12-18T11:50:49;20.20;75.10
6954;DHT22;3516;47.980;8.808;2022-12-18T11:53:17;20.30;76.20
6954;DHT22;3516;47.980;8.808;2022-12-18T11:55:52;20.20;76.00
6954;DHT22;3516;47.980;8.808;2022-12-18T11:58:29;20.30;76.30
6954;DHT22;3516;47.980;8.808;2022-12-18T12:01:07;20.30;76.60
6954;DHT22;3516;47.980;8.808;2022-12-18T12:03:55;20.20;76.30
6954;DHT22;3516;47.980;8.808;2022-12-18T12:06:31;20.30;76.80
6954;DHT22;3516;47.980;8.808;2022-12-18T12:09:07;20.30;79.00
6954;DHT22;3516;47.980;8.808;2022-12-18T12:11:46;20.40;86.30
6954;DHT22;3516;47.980;8.808;2022-12-18T12:14:31;20.40;77.90
6954;DHT22;3516;47.980;8.808;2022-12-18T12:17:05;20.40;74.90
6954;DHT22;3516;47.980;8.808;2022-12-18T12:19:39;20.40;74.80
6954;DHT22;3516;47.980;8.808;2022-12-18T12:22:13;20.50;76.30
6954;DHT22;3516;47.980;8.808;2022-12-18T12:24:53;20.50;76.60
6954;DHT22;3516;47.980;8.808;2022-12-18T12:27:29;20.70;77.00
6954;DHT22;3516;47.980;8.808;2022-12-18T12:30:03;20.60;76.00
6954;DHT22;3516;47.980;8.808;2022-12-18T12:32:45;20.50;76.90
6954;DHT22;3516;47.980;8.808;2022-12-18T12:35:25;20.70;76.30
6954;DHT22;3516;47.980;8.808;2022-12-18T12:38:02;20.70;77.60
6954;DHT22;3516;47.980;8.808;2022-12-18T12:40:33;20.80;79.00
6954;DHT22;3516;47.980;8.808;2022-12-18T12:43:03;20.90;80.50
6954;DHT22;3516;47.980;8.808;2022-12-18T12:45:44;21.10;83.20
6954;DHT22;3516;47.980;8.808;2022-12-18T12:48:18;21.20;86.00
6954;DHT22;3516;47.980;8.808;2022-12-18T12:50:48;21.30;87.40
6954;DHT22;3516;47.980;8.808;2022-12-18T12:53:23;21.40;85.40
6954;DHT22;3516;47.980;8.808;2022-12-18T12:55:50;21.20;82.70
6954;DHT22;3516;47.980;8.808;2022-12-18T12:58:26;21.10;82.20
6954;DHT22;3516;47.980;8.808;2022-12-18T13:01:04;21.00;82.10
6954;DHT22;3516;47.980;8.808;2022-12-18T13:03:43;20.90;81.60
6954;DHT22;3516;47.980;8.808;2022-12-18T13:06:16;20.80;80.40
6954;DHT22;3516;47.980;8.808;2022-12-18T13:08:55;20.80;82.10
6954;DHT22;3516;47.980;8.808;2022-12-18T13:11:35;20.60;80.20
6954;DHT22;3516;47.980;8.808;2022-12-18T13:14:23;20.50;80.10
6954;DHT22;3516;47.980;8.808;2022-12-18T13:16:50;20.50;80.00
6954;DHT22;3516;47.980;8.808;2022-12-18T13:19:26;20.30;81.00
6954;DHT22;3516;47.980;8.808;2022-12-18T13:21:54;20.30;80.60
6954;DHT22;3516;47.980;8.808;2022-12-18T13:24:25;20.20;81.00
6954;DHT22;3516;47.980;8.808;2022-12-18T13:26:52;20.00;80.90
6954;DHT22;3516;47.980;8.808;2022-12-18T13:29:40;20.00;81.40
6954;DHT22;3516;47.980;8.808;2022-12-18T13:32:23;19.90;80.40
6954;DHT22;3516;47.980;8.808;2022-12-18T13:37:54;20.20;82.10
6954;DHT22;3516;47.980;8.808;2022-12-18T13:43:32;19.80;83.20
6954;DHT22;3516;47.980;8.808;2022-12-18T13:46:06;19.70;85.70
6954;DHT22;3516;47.980;8.808;2022-12-18T13:48:50;19.70;86.70
6954;DHT22;3516;47.980;8.808;2022-12-18T13:51:19;19.70;86.20
6954;DHT22;3516;47.980;8.808;2022-12-18T13:53:51;19.70;87.70
6954;DHT22;3516;47.980;8.808;2022-12-18T13:56:23;19.70;82.80
6954;DHT22;3516;47.980;8.808;2022-12-18T13:59:14;19.70;84.20
6954;DHT22;3516;47.980;8.808;2022-12-18T14:01:45;19.60;84.90
6954;DHT22;3516;47.980;8.808;2022-12-18T14:04:19;19.60;86.10
6954;DHT22;3516;47.980;8.808;2022-12-18T14:06:47;19.70;83.80
6954;DHT22;3516;47.980;8.808;2022-12-18T14:09:19;19.60;83.70
6954;DHT22;3516;47.980;8.808;2022-12-18T14:11:48;19.60;84.10
6954;DHT22;3516;47.980;8.808;2022-12-18T14:14:17;19.50;84.40
6954;DHT22;3516;47.980;8.808;2022-12-18T14:16:46;19.50;84.70
6954;DHT22;3516;47.980;8.808;2022-12-18T14:19:16;19.40;85.10
6954;DHT22;3516;47.980;8.808;2022-12-18T14:21:47;19.40;85.20
6954;DHT22;3516;47.980;8.808;2022-12-18T14:24:19;19.50;85.80
6954;DHT22;3516;47.980;8.808;2022-12-18T14:26:48;19.40;86.10
6954;DHT22;3516;47.980;8.808;2022-12-18T14:29:24;19.40;86.70
6954;DHT22;3516;47.980;8.808;2022-12-18T14:32:06;19.40;87.10
6954;DHT22;3516;47.980;8.808;2022-12-18T14:34:33;19.30;87.30
6954;DHT22;3516;47.980;8.808;2022-12-18T14:37:01;19.20;87.80
6954;DHT22;3516;47.980;8.808;2022-12-18T14:39:30;19.20;87.80
6954;DHT22;3516;47.980;8.808;2022-12-18T14:41:57;19.10;88.20
6954;DHT22;3516;47.980;8.808;2022-12-18T14:44:24;19.20;89.10
6954;DHT22;3516;47.980;8.808;2022-12-18T14:46:52;19.40;90.00
6954;DHT22;3516;47.980;8.808;2022-12-18T14:49:23;19.40;90.10
6954;DHT22;3516;47.980;8.808;2022-12-18T14:51:53;19.60;90.20
6954;DHT22;3516;47.980;8.808;2022-12-18T14:54:21;19.70;90.20
6954;DHT22;3516;47.980;8.808;2022-12-18T14:56:51;19.80;90.30
6954;DHT22;3516;47.980;8.808;2022-12-18T14:59:22;19.90;90.10
6954;DHT22;3516;47.980;8.808;2022-12-18T15:01:57;19.80;89.30
6954;DHT22;3516;47.980;8.808;2022-12-18T15:04:28;19.70;88.80
6954;DHT22;3516;47.980;8.808;2022-12-18T15:07:08;19.70;88.60
6954;DHT22;3516;47.980;8.808;2022-12-18T15:09:35;19.60;88.10
6954;DHT22;3516;47.980;8.808;2022-12-18T15:12:04;19.60;88.10
6954;DHT22;3516;47.980;8.808;2022-12-18T15:14:38;19.50;88.20
6954;DHT22;3516;47.980;8.808;2022-12-18T15:17:14;19.50;87.90
6954;DHT22;3516;47.980;8.808;2022-12-18T15:19:43;19.50;87.80
6954;DHT22;3516;47.980;8.808;2022-12-18T15:22:25;19.40;87.80
6954;DHT22;3516;47.980;8.808;2022-12-18T15:24:53;19.50;87.60
6954;DHT22;3516;47.980;8.808;2022-12-18T15:27:29;19.40;87.40
6954;DHT22;3516;47.980;8.808;2022-12-18T15:30:00;19.20;85.90
6954;DHT22;3516;47.980;8.808;2022-12-18T15:32:27;19.30;86.60
6954;DHT22;3516;47.980;8.808;2022-12-18T15:35:02;19.30;86.50
6954;DHT22;3516;47.980;8.808;2022-12-18T15:37:29;19.30;86.30
6954;DHT22;3516;47.980;8.808;2022-12-18T15:39:56;19.20;86.70
6954;DHT22;3516;47.980;8.808;2022-12-18T15:42:24;19.00;86.70
6954;DHT22;3516;47.980;8.808;2022-12-18T15:45:11;19.10;86.70
6954;DHT22;3516;47.980;8.808;2022-12-18T15:47:38;18.90;87.00
6954;DHT22;3516;47.980;8.808;2022-12-18T15:50:08;18.80;87.10
6954;DHT22;3516;47.980;8.808;2022-12-18T15:52:39;18.80;86.80
6954;DHT22;3516;47.980;8.808;2022-12-18T15:55:10;18.80;87.00
6954;DHT22;3516;47.980;8.808;2022-12-18T15:57:56;18.70;87.20
6954;DHT22;3516;47.980;8.808;2022-12-18T16:00:23;18.70;87.10
6954;DHT22;3516;47.980;8.808;2022-12-18T16:02:50;18.60;87.30
6954;DHT22;3516;47.980;8.808;2022-12-18T16:05:18;18.60;87.10
6954;DHT22;3516;47.980;8.808;2022-12-18T16:07:46;18.60;86.80
6954;DHT22;3516;47.980;8.808;2022-12-18T16:10:14;18.60;86.70
6954;DHT22;3516;47.980;8.808;2022-12-18T16:12:41;18.50;86.60
6954;DHT22;3516;47.980;8.808;2022-12-18T16:15:13;18.50;86.50
6954;DHT22;3516;47.980;8.808;2022-12-18T16:17:41;18.50;86.40
6954;DHT22;3516;47.980;8.808;2022-12-18T16:20:12;18.50;86.50
6954;DHT22;3516;47.980;8.808;2022-12-18T16:22:41;18.50;86.40
6954;DHT22;3516;47.980;8.808;2022-12-18T16:25:17;18.50;86.30
6954;DHT22;3516;47.980;8.808;2022-12-18T16:27:44;18.50;86.10
6954;DHT22;3516;47.980;8.808;2022-12-18T16:30:14;18.50;85.60
6954;DHT22;3516;47.980;8.808;2022-12-18T16:32:41;18.50;85.40
6954;DHT22;3516;47.980;8.808;2022-12-18T16:35:10;18.40;85.50
6954;DHT22;3516;47.980;8.808;2022-12-18T16:37:37;18.40;85.50
6954;DHT22;3516;47.980;8.808;2022-12-18T16:40:05;18.40;86.30
6954;DHT22;3516;47.980;8.808;2022-12-18T16:42:34;18.40;86.00
6954;DHT22;3516;47.980;8.808;2022-12-18T16:45:01;18.40;86.50
6954;DHT22;3516;47.980;8.808;2022-12-18T16:47:29;18.40;86.90
6954;DHT22;3516;47.980;8.808;2022-12-18T16:49:56;18.30;88.80
6954;DHT22;3516;47.980;8.808;2022-12-18T16:52:22;18.30;87.60
6954;DHT22;3516;47.980;8.808;2022-12-18T16:54:49;18.30;87.10
6954;DHT22;3516;47.980;8.808;2022-12-18T16:57:18;18.30;87.00
6954;DHT22;3516;47.980;8.808;2022-12-18T16:59:46;18.30;80.90
6954;DHT22;3516;47.980;8.808;2022-12-18T17:02:14;18.30;81.40
6954;DHT22;3516;47.980;8.808;2022-12-18T17:04:43;18.30;81.20
6954;DHT22;3516;47.980;8.808;2022-12-18T17:07:10;18.30;81.30
6954;DHT22;3516;47.980;8.808;2022-12-18T17:09:37;18.20;81.10
6954;DHT22;3516;47.980;8.808;2022-12-18T17:12:04;18.20;81.00
6954;DHT22;3516;47.980;8.808;2022-12-18T17:14:32;18.20;80.70
6954;DHT22;3516;47.980;8.808;2022-12-18T17:17:00;18.30;80.70
6954;DHT22;3516;47.980;8.808;2022-12-18T17:19:27;18.20;80.90
6954;DHT22;3516;47.980;8.808;2022-12-18T17:21:57;18.20;81.00
6954;DHT22;3516;47.980;8.808;2022-12-18T17:24:24;18.10;80.30
6954;DHT22;3516;47.980;8.808;2022-12-18T17:26:51;18.10;80.20
6954;DHT22;3516;47.980;8.808;2022-12-18T17:29:20;18.10;80.50
6954;DHT22;3516;47.980;8.808;2022-12-18T17:31:47;18.10;80.20
6954;DHT22;3516;47.980;8.808;2022-12-18T17:34:14;18.10;80.10
6954;DHT22;3516;47.980;8.808;2022-12-18T17:36:42;18.10;79.60
6954;DHT22;3516;47.980;8.808;2022-12-18T17:39:16;18.10;79.30
6954;DHT22;3516;47.980;8.808;2022-12-18T17:41:45;18.10;79.20
6954;DHT22;3516;47.980;8.808;2022-12-18T17:44:13;18.10;79.50
6954;DHT22;3516;47.980;8.808;2022-12-18T17:46:41;18.10;79.60
6954;DHT22;3516;47.980;8.808;2022-12-18T17:49:09;18.10;79.60
6954;DHT22;3516;47.980;8.808;2022-12-18T17:51:36;18.10;79.70
6954;DHT22;3516;47.980;8.808;2022-12-18T17:54:03;18.10;79.50
6954;DHT22;3516;47.980;8.808;2022-12-18T17:56:32;18.00;79.00
6954;DHT22;3516;47.980;8.808;2022-12-18T17:58:59;18.00;79.30
6954;DHT22;3516;47.980;8.808;2022-12-18T18:01:28;18.10;79.40
6954;DHT22;3516;47.980;8.808;2022-12-18T18:03:55;18.00;79.20
6954;DHT22;3516;47.980;8.808;2022-12-18T18:06:22;18.00;79.60
6954;DHT22;3516;47.980;8.808;2022-12-18T18:08:49;18.10;79.30
6954;DHT22;3516;47.980;8.808;2022-12-18T18:11:18;18.00;79.40
6954;DHT22;3516;47.980;8.808;2022-12-18T18:14:06;18.10;79.20
6954;DHT22;3516;47.980;8.808;2022-12-18T18:16:35;18.00;79.20
6954;DHT22;3516;47.980;8.808;2022-12-18T18:19:03;18.00;80.00
6954;DHT22;3516;47.980;8.808;2022-12-18T18:21:32;18.00;81.10
6954;DHT22;3516;47.980;8.808;2022-12-18T18:24:00;18.00;80.50
6954;DHT22;3516;47.980;8.808;2022-12-18T18:26:27;18.00;81.00
6954;DHT22;3516;47.980;8.808;2022-12-18T18:28:56;18.00;82.90
6954;DHT22;3516;47.980;8.808;2022-12-18T18:31:25;18.00;82.00
6954;DHT22;3516;47.980;8.808;2022-12-18T18:33:52;17.90;78.60
6954;DHT22;3516;47.980;8.808;2022-12-18T18:36:18;18.00;79.00
6954;DHT22;3516;47.980;8.808;2022-12-18T18:38:45;18.00;79.50
6954;DHT22;3516;47.980;8.808;2022-12-18T18:41:12;18.00;79.70
6954;DHT22;3516;47.980;8.808;2022-12-18T18:43:39;18.10;79.30
6954;DHT22;3516;47.980;8.808;2022-12-18T18:46:06;18.10;79.00
6954;DHT22;3516;47.980;8.808;2022-12-18T18:48:35;18.10;78.90
6954;DHT22;3516;47.980;8.808;2022-12-18T18:51:04;18.00;79.40
6954;DHT22;3516;47.980;8.808;2022-12-18T18:53:35;18.00;78.50
6954;DHT22;3516;47.980;8.808;2022-12-18T18:56:03;18.00;78.40
6954;DHT22;3516;47.980;8.808;2022-12-18T18:58:29;18.00;78.20
6954;DHT22;3516;47.980;8.808;2022-12-18T19:00:58;18.00;78.30
6954;DHT22;3516;47.980;8.808;2022-12-18T19:03:25;18.00;78.20
6954;DHT22;3516;47.980;8.808;2022-12-18T19:05:55;17.90;78.30
6954;DHT22;3516;47.980;8.808;2022-12-18T19:08:25;17.90;78.30
6954;DHT22;3516;47.980;8.808;2022-12-18T19:10:53;18.10;78.40
6954;DHT22;3516;47.980;8.808;2022-12-18T19:13:20;17.90;78.00
6954;DHT22;3516;47.980;8.808;2022-12-18T19:15:46;17.90;78.20
6954;DHT22;3516;47.980;8.808;2022-12-18T19:18:13;17.90;78.10
6954;DHT22;3516;47.980;8.808;2022-12-18T19:20:40;17.90;77.90
6954;DHT22;3516;47.980;8.808;2022-12-18T19:23:08;17.90;77.90
6954;DHT22;3516;47.980;8.808;2022-12-18T19:25:36;17.90;77.90
6954;DHT22;3516;47.980;8.808;2022-12-18T19:28:03;18.00;77.80
6954;DHT22;3516;47.980;8.808;2022-12-18T19:30:30;17.90;77.60
6954;DHT22;3516;47.980;8.808;2022-12-18T19:32:57;17.90;77.90
6954;DHT22;3516;47.980;8.808;2022-12-18T19:35:24;17.90;77.90
6954;DHT22;3516;47.980;8.808;2022-12-18T19:37:50;17.90;77.60
6954;DHT22;3516;47.980;8.808;2022-12-18T19:40:19;17.90;77.70
6954;DHT22;3516;47.980;8.808;2022-12-18T19:42:45;17.90;77.80
6954;DHT22;3516;47.980;8.808;2022-12-18T19:45:12;17.90;77.70
6954;DHT22;3516;47.980;8.808;2022-12-18T19:47:39;17.90;77.90
6954;DHT22;3516;47.980;8.808;2022-12-18T19:50:07;17.90;78.10
6954;DHT22;3516;47.980;8.808;2022-12-18T19:52:34;17.80;77.40
6954;DHT22;3516;47.980;8.808;2022-12-18T19:55:01;17.90;78.00
6954;DHT22;3516;47.980;8.808;2022-12-18T19:57:30;17.90;77.90
6954;DHT22;3516;47.980;8.808;2022-12-18T19:59:57;17.90;77.80
6954;DHT22;3516;47.980;8.808;2022-12-18T20:02:23;17.80;77.80
6954;DHT22;3516;47.980;8.808;2022-12-18T20:04:50;17.80;77.70
6954;DHT22;3516;47.980;8.808;2022-12-18T20:07:17;17.80;77.60
6954;DHT22;3516;47.980;8.808;2022-12-18T20:09:44;17.80;77.30
6954;DHT22;3516;47.980;8.808;2022-12-18T20:12:11;17.80;77.70
6954;DHT22;3516;47.980;8.808;2022-12-18T20:14:39;17.80;77.50
6954;DHT22;3516;47.980;8.808;2022-12-18T20:17:06;17.80;77.60
6954;DHT22;3516;47.980;8.808;2022-12-18T20:19:32;17.80;77.50
6954;DHT22;3516;47.980;8.808;2022-12-18T20:21:59;17.80;77.40
6954;DHT22;3516;47.980;8.808;2022-12-18T20:24:26;17.80;77.30
6954;DHT22;3516;47.980;8.808;2022-12-18T20:26:53;17.80;77.20
6954;DHT22;3516;47.980;8.808;2022-12-18T20:29:20;17.80;77.30
6954;DHT22;3516;47.980;8.808;2022-12-18T20:31:48;17.80;77.30
6954;DHT22;3516;47.980;8.808;2022-12-18T20:34:14;17.80;77.30
6954;DHT22;3516;47.980;8.808;2022-12-18T20:36:41;17.80;77.30
6954;DHT22;3516;47.980;8.808;2022-12-18T20:39:08;17.80;77.30
6954;DHT22;3516;47.980;8.808;2022-12-18T20:41:35;17.80;77.20
6954;DHT22;3516;47.980;8.808;2022-12-18T20:44:02;17.80;77.30
6954;DHT22;3516;47.980;8.808;2022-12-18T20:46:29;17.80;77.20
6954;DHT22;3516;47.980;8.808;2022-12-18T20:48:57;17.80;77.20
6954;DHT22;3516;47.980;8.808;2022-12-18T20:51:24;17.80;77.30
6954;DHT22;3516;47.980;8.808;2022-12-18T20:53:54;17.80;78.00
6954;DHT22;3516;47.980;8.808;2022-12-18T20:56:22;17.90;79.60
6954;DHT22;3516;47.980;8.808;2022-12-18T20:58:49;18.10;81.30
6954;DHT22;3516;47.980;8.808;2022-12-18T21:01:18;18.30;82.10
6954;DHT22;3516;47.980;8.808;2022-12-18T21:03:45;18.40;82.50
6954;DHT22;3516;47.980;8.808;2022-12-18T21:06:15;18.60;83.20
6954;DHT22;3516;47.980;8.808;2022-12-18T21:08:43;18.80;83.60
6954;DHT22;3516;47.980;8.808;2022-12-18T21:11:15;18.90;83.80
6954;DHT22;3516;47.980;8.808;2022-12-18T21:13:56;18.90;83.60
6954;DHT22;3516;47.980;8.808;2022-12-18T21:16:23;19.00;83.80
6954;DHT22;3516;47.980;8.808;2022-12-18T21:18:49;19.00;83.80
6954;DHT22;3516;47.980;8.808;2022-12-18T21:21:17;19.00;83.90
6954;DHT22;3516;47.980;8.808;2022-12-18T21:23:44;19.00;83.80
6954;DHT22;3516;47.980;8.808;2022-12-18T21:26:15;19.00;83.80
6954;DHT22;3516;47.980;8.808;2022-12-18T21:28:41;19.10;84.40
6954;DHT22;3516;47.980;8.808;2022-12-18T21:31:08;19.00;84.70
6954;DHT22;3516;47.980;8.808;2022-12-18T21:33:35;19.00;85.50
6954;DHT22;3516;47.980;8.808;2022-12-18T21:36:03;19.00;85.80
6954;DHT22;3516;47.980;8.808;2022-12-18T21:38:31;19.00;86.80
6954;DHT22;3516;47.980;8.808;2022-12-18T21:40:58;18.90;87.60
6954;DHT22;3516;47.980;8.808;2022-12-18T21:43:25;18.90;88.30
6954;DHT22;3516;47.980;8.808;2022-12-18T21:46:09;18.90;87.90
6954;DHT22;3516;47.980;8.808;2022-12-18T21:48:36;18.90;89.50
6954;DHT22;3516;47.980;8.808;2022-12-18T21:51:03;18.90;88.30
6954;DHT22;3516;47.980;8.808;2022-12-18T21:53:31;18.80;87.90
6954;DHT22;3516;47.980;8.808;2022-12-18T21:55:58;18.80;88.20
6954;DHT22;3516;47.980;8.808;2022-12-18T21:58:25;18.80;88.70
6954;DHT22;3516;47.980;8.808;2022-12-18T22:00:52;18.80;88.90
6954;DHT22;3516;47.980;8.808;2022-12-18T22:03:19;18.70;88.80
6954;DHT22;3516;47.980;8.808;2022-12-18T22:05:46;18.70;89.50
6954;DHT22;3516;47.980;8.808;2022-12-18T22:08:13;18.80;90.10
6954;DHT22;3516;47.980;8.808;2022-12-18T22:10:41;18.60;91.20
6954;DHT22;3516;47.980;8.808;2022-12-18T22:13:07;18.60;91.30
6954;DHT22;3516;47.980;8.808;2022-12-18T22:15:34;18.70;91.20
6954;DHT22;3516;47.980;8.808;2022-12-18T22:18:01;18.60;91.20
6954;DHT22;3516;47.980;8.808;2022-12-18T22:20:28;18.60;91.90
6954;DHT22;3516;47.980;8.808;2022-12-18T22:22:54;18.60;92.30
6954;DHT22;3516;47.980;8.808;2022-12-18T22:25:21;18.60;91.00
6954;DHT22;3516;47.980;8.808;2022-12-18T22:27:49;18.60;91.20
6954;DHT22;3516;47.980;8.808;2022-12-18T22:30:30;18.60;91.30
6954;DHT22;3516;47.980;8.808;2022-12-18T22:32:56;18.60;91.60
6954;DHT22;3516;47.980;8.808;2022-12-18T22:35:23;18.60;92.00
6954;DHT22;3516;47.980;8.808;2022-12-18T22:37:50;18.60;92.10
6954;DHT22;3516;47.980;8.808;2022-12-18T22:40:18;18.60;92.40
6954;DHT22;3516;47.980;8.808;2022-12-18T22:42:45;18.60;92.60